Stavropol', Russia
Current Conditions -  °F | °C
As of 11:00 AM on Wednesday 22 Oct 2014 (Local Time) from URMT Reporting Station
Broken Clouds Broken Clouds  
Wind Chill: 57°   Ceiling: 10000
Heat Index: 57°   Visibility: 6mi
Dew Point: 45°   Wind: 13mph
Humidity: 63%   Direction: 310°NW
Pressure: 29.85"   Gusts: 20mph
Location:  45.04°N, 41.97°E
Report Text: URMT 220800Z 31006G09MPS 9999 FEW033CB BKN100 14/07 Q1011 NOSIGRMK QFE720 SC060
Loading
Personal Weather Stations






























Interactive Weather Map
Tropical Storm Tracking
New forecast layout! Learn more

10-Day Weather Forecast

Advertisements
Track Severe Weather on mobile